Time;durP1;ratioP1;P1;durP2;ratioP2;P2;SDS_P1;SDS_P2;PMS_P1;PMS_P2;Temp;Humidity;BMP_temperature;BMP_pressure;BME280_temperature;BME280_humidity;BME280_pressure;Samples;Min_cycle;Max_cycle;Signal;HPM_P1;HPM_P2
2023/07/02 00:00:05;;;;;;;;;;;;;;;;;;5096723;28;19920;-87
2023/07/02 00:02:31;;;;;;;;;;;;;;;;;;5096864;28;19965;-86
2023/07/02 00:04:57;;;;;;;;;;;;;;;;;;5115156;28;19971;-87
2023/07/02 00:07:25;;;;;;;;;;;;;;;;;;5096703;28;20355;-87
2023/07/02 00:09:51;;;;;;;;;;;;;;;;;;5113799;28;20020;-87
2023/07/02 00:12:17;;;;;;;;;;;;;;;;;;5113523;28;19920;-87
2023/07/02 00:14:43;;;;;;;;;;;;;;;;;;5113540;28;19988;-87
2023/07/02 00:17:12;;;;;;;;;;;;;;;;;;5113430;28;20337;-87
2023/07/02 00:19:41;;;;;;;;;;;;;;;;;;5113613;28;19927;-87
2023/07/02 00:22:07;;;;;;;;;;;;;;;;;;5113576;28;20336;-87
2023/07/02 00:24:33;;;;;;;;;;;;;;;;;;5113515;28;19972;-87
2023/07/02 00:26:59;;;;;;;;;;;;;;;;;;5096266;28;19923;-86
2023/07/02 00:29:25;;;;;;;;;;;;;;;;;;5113292;28;19985;-86
2023/07/02 00:31:51;;;;;;;;;;;;;;;;;;5113233;28;20378;-87
2023/07/02 00:34:16;;;;;;;;;;;;;;;;;;5113200;28;19931;-87
2023/07/02 00:36:42;;;;;;;;;;;;;;;;;;5096138;28;20286;-87
2023/07/02 00:39:08;;;;;;;;;;;;;;;;;;5096127;28;19928;-87
2023/07/02 00:41:34;;;;;;;;;;;;;;;;;;5113140;28;19978;-88
2023/07/02 00:44:00;;;;;;;;;;;;;;;;;;5114464;28;19920;-88
2023/07/02 00:46:26;;;;;;;;;;;;;;;;;;5112909;28;19920;-87
2023/07/02 00:48:52;;;;;;;;;;;;;;;;;;5113027;28;19920;-87
2023/07/02 00:51:18;;;;;;;;;;;;;;;;;;5112804;28;19972;-87
2023/07/02 00:53:44;;;;;;;;;;;;;;;;;;5112465;28;19931;-88
2023/07/02 00:56:10;;;;;;;;;;;;;;;;;;5112484;28;20395;-87
2023/07/02 00:58:36;;;;;;;;;;;;;;;;;;5112813;28;19972;-88
2023/07/02 01:01:02;;;;;;;;;;;;;;;;;;5112640;28;19953;-87
2023/07/02 01:03:28;;;;;;;;;;;;;;;;;;5112631;28;19945;-87
2023/07/02 01:05:54;;;;;;;;;;;;;;;;;;5095578;28;19920;-87
2023/07/02 01:08:20;;;;;;;;;;;;;;;;;;5112379;28;19976;-87
2023/07/02 01:10:46;;;;;;;;;;;;;;;;;;5114183;28;20316;-87
2023/07/02 01:13:12;;;;;;;;;;;;;;;;;;5112335;28;19920;-87
2023/07/02 01:15:38;;;;;;;;;;;;;;;;;;5112443;28;19926;-87
2023/07/02 01:18:04;;;;;;;;;;;;;;;;;;5095397;28;19934;-87
2023/07/02 01:20:30;;;;;;;;;;;;;;;;;;5095651;28;19920;-86
2023/07/02 01:22:56;;;;;;;;;;;;;;;;;;5112195;28;19924;-86
2023/07/02 01:25:24;;;;;;;;;;;;;;;;;;5095389;28;20018;-87
2023/07/02 01:27:50;;;;;;;;;;;;;;;;;;5095097;28;19927;-87
2023/07/02 01:30:16;;;;;;;;;;;;;;;;;;5113309;28;19924;-87
2023/07/02 01:32:42;;;;;;;;;;;;;;;;;;5112421;28;19984;-87
2023/07/02 01:35:08;;;;;;;;;;;;;;;;;;5112084;28;19927;-87
2023/07/02 01:37:37;;;;;;;;;;;;;;;;;;5094853;28;19923;-87
2023/07/02 01:40:03;;;;;;;;;;;;;;;;;;5111944;28;19920;-87
2023/07/02 01:42:29;;;;;;;;;;;;;;;;;;5111843;28;19924;-87
2023/07/02 01:44:55;;;;;;;;;;;;;;;;;;5111856;28;19926;-87
2023/07/02 01:47:21;;;;;;;;;;;;;;;;;;5111638;28;20196;-87
2023/07/02 01:49:46;;;;;;;;;;;;;;;;;;5111783;28;19919;-87
2023/07/02 01:52:12;;;;;;;;;;;;;;;;;;5111586;28;19965;-87
2023/07/02 01:54:38;;;;;;;;;;;;;;;;;;5111772;28;20447;-87
2023/07/02 01:57:04;;;;;;;;;;;;;;;;;;5111588;28;19966;-87
2023/07/02 01:59:30;;;;;;;;;;;;;;;;;;5094685;28;20242;-87
2023/07/02 02:01:56;;;;;;;;;;;;;;;;;;5111517;28;19977;-87
2023/07/02 02:04:22;;;;;;;;;;;;;;;;;;5111481;28;20286;-87
2023/07/02 02:06:48;;;;;;;;;;;;;;;;;;5110634;28;20011;-87
2023/07/02 02:09:14;;;;;;;;;;;;;;;;;;5111721;28;19926;-88
2023/07/02 02:11:40;;;;;;;;;;;;;;;;;;5111926;28;20010;-87
2023/07/02 02:14:06;;;;;;;;;;;;;;;;;;5111448;28;19926;-87
2023/07/02 02:16:33;;;;;;;;;;;;;;;;;;5111290;28;20275;-87
2023/07/02 02:18:59;;;;;;;;;;;;;;;;;;5111676;28;20279;-87
2023/07/02 02:21:25;;;;;;;;;;;;;;;;;;5111190;28;19924;-87
2023/07/02 02:23:51;;;;;;;;;;;;;;;;;;5111382;28;19955;-86
2023/07/02 02:26:17;;;;;;;;;;;;;;;;;;5111317;28;19927;-87
2023/07/02 02:28:43;;;;;;;;;;;;;;;;;;5111326;28;20220;-86
2023/07/02 02:31:08;;;;;;;;;;;;;;;;;;5111308;28;19920;-87
2023/07/02 02:33:35;;;;;;;;;;;;;;;;;;5111610;28;19919;-87
2023/07/02 02:36:01;;;;;;;;;;;;;;;;;;5111377;28;19926;-87
2023/07/02 02:38:27;;;;;;;;;;;;;;;;;;5111454;28;20359;-86
2023/07/02 02:40:53;;;;;;;;;;;;;;;;;;5111030;28;19924;-87
2023/07/02 02:43:18;;;;;;;;;;;;;;;;;;5111086;28;19945;-87
2023/07/02 02:45:44;;;;;;;;;;;;;;;;;;5111188;28;19927;-87
2023/07/02 02:48:10;;;;;;;;;;;;;;;;;;5111189;28;19930;-87
2023/07/02 02:50:36;;;;;;;;;;;;;;;;;;5111034;28;19927;-87
2023/07/02 02:53:02;;;;;;;;;;;;;;;;;;5093978;28;20382;-87
2023/07/02 02:55:28;;;;;;;;;;;;;;;;;;5110929;28;19931;-87
2023/07/02 02:57:54;;;;;;;;;;;;;;;;;;5110945;28;19919;-87
2023/07/02 03:00:20;;;;;;;;;;;;;;;;;;5110954;28;19924;-87
2023/07/02 03:02:46;;;;;;;;;;;;;;;;;;5110949;28;19923;-87
2023/07/02 03:05:12;;;;;;;;;;;;;;;;;;5111039;28;19992;-87
2023/07/02 03:07:38;;;;;;;;;;;;;;;;;;5110952;28;20435;-87
2023/07/02 03:10:04;;;;;;;;;;;;;;;;;;5110897;28;19920;-86
2023/07/02 03:12:30;;;;;;;;;;;;;;;;;;5093869;28;19924;-86
2023/07/02 03:14:56;;;;;;;;;;;;;;;;;;5112360;28;20263;-86
2023/07/02 03:17:22;;;;;;;;;;;;;;;;;;5112575;28;19920;-86
2023/07/02 03:19:48;;;;;;;;;;;;;;;;;;5114960;28;19927;-86
2023/07/02 03:22:14;;;;;;;;;;;;;;;;;;5115075;28;20263;-86
2023/07/02 03:24:39;;;;;;;;;;;;;;;;;;5115266;28;19920;-86
2023/07/02 03:27:05;;;;;;;;;;;;;;;;;;5114698;28;20484;-86
2023/07/02 03:29:31;;;;;;;;;;;;;;;;;;5114596;28;19967;-86
2023/07/02 03:31:57;;;;;;;;;;;;;;;;;;5114699;28;20363;-87
2023/07/02 03:34:23;;;;;;;;;;;;;;;;;;5114510;28;19924;-86
2023/07/02 03:36:49;;;;;;;;;;;;;;;;;;5114522;28;19981;-87
2023/07/02 03:39:16;;;;;;;;;;;;;;;;;;5115367;28;19919;-86
2023/07/02 03:41:42;;;;;;;;;;;;;;;;;;5115048;28;20357;-87
2023/07/02 03:44:08;;;;;;;;;;;;;;;;;;5115060;28;19958;-87
2023/07/02 03:46:34;;;;;;;;;;;;;;;;;;5114790;28;19931;-87
2023/07/02 03:48:59;;;;;;;;;;;;;;;;;;5097600;28;19919;-87
2023/07/02 03:51:25;;;;;;;;;;;;;;;;;;5113986;28;19927;-87
2023/07/02 03:53:51;;;;;;;;;;;;;;;;;;5113802;28;20279;-87
2023/07/02 03:56:17;;;;;;;;;;;;;;;;;;5114131;28;19919;-87
2023/07/02 03:58:43;;;;;;;;;;;;;;;;;;5097118;28;19923;-87
2023/07/02 04:01:09;;;;;;;;;;;;;;;;;;5113757;28;19919;-85
2023/07/02 04:03:35;;;;;;;;;;;;;;;;;;5096740;28;19919;-86
2023/07/02 04:06:01;;;;;;;;;;;;;;;;;;5113682;28;19920;-86
2023/07/02 04:08:30;;;;;;;;;;;;;;;;;;5113702;28;20010;-88
2023/07/02 04:10:56;;;;;;;;;;;;;;;;;;5113583;28;19926;-87
2023/07/02 04:13:22;;;;;;;;;;;;;;;;;;5113588;28;20010;-87
2023/07/02 04:15:48;;;;;;;;;;;;;;;;;;5113624;28;20014;-87
2023/07/02 04:18:14;;;;;;;;;;;;;;;;;;5113889;28;20283;-87
2023/07/02 04:20:40;;;;;;;;;;;;;;;;;;5113752;28;19931;-87
2023/07/02 04:23:06;;;;;;;;;;;;;;;;;;5113591;28;20088;-87
2023/07/02 04:25:31;;;;;;;;;;;;;;;;;;5114665;28;19923;-87
2023/07/02 04:27:58;;;;;;;;;;;;;;;;;;5096241;28;20001;-87
2023/07/02 04:30:24;;;;;;;;;;;;;;;;;;5095420;28;19920;-87
2023/07/02 04:32:50;;;;;;;;;;;;;;;;;;5096314;28;19919;-87
2023/07/02 04:35:16;;;;;;;;;;;;;;;;;;5112875;28;20015;-87
2023/07/02 04:37:44;;;;;;;;;;;;;;;;;;5114264;28;19980;-87
2023/07/02 04:40:10;;;;;;;;;;;;;;;;;;5113127;28;19920;-87
2023/07/02 04:42:37;;;;;;;;;;;;;;;;;;5114120;28;20383;-87
2023/07/02 04:45:03;;;;;;;;;;;;;;;;;;5112848;28;19923;-87
2023/07/02 04:47:29;;;;;;;;;;;;;;;;;;5112771;28;20329;-87
2023/07/02 04:49:55;;;;;;;;;;;;;;;;;;5112950;28;19973;-87
2023/07/02 04:52:20;;;;;;;;;;;;;;;;;;5114210;28;19965;-87
2023/07/02 04:54:46;;;;;;;;;;;;;;;;;;5112935;28;20263;-86
2023/07/02 04:57:14;;;;;;;;;;;;;;;;;;5095622;28;19919;-87
2023/07/02 04:59:40;;;;;;;;;;;;;;;;;;5112507;28;19919;-87
2023/07/02 05:02:06;;;;;;;;;;;;;;;;;;5095453;28;19923;-86
2023/07/02 05:04:32;;;;;;;;;;;;;;;;;;5112611;28;19926;-86
2023/07/02 05:06:58;;;;;;;;;;;;;;;;;;5112704;28;19919;-87
2023/07/02 05:09:23;;;;;;;;;;;;;;;;;;5095596;28;20018;-87
2023/07/02 05:11:49;;;;;;;;;;;;;;;;;;5113947;28;19923;-87
2023/07/02 05:14:15;;;;;;;;;;;;;;;;;;5113650;28;20290;-87
2023/07/02 05:16:41;;;;;;;;;;;;;;;;;;5112420;28;19930;-86
2023/07/02 05:19:07;;;;;;;;;;;;;;;;;;5112316;28;19927;-86
2023/07/02 05:21:33;;;;;;;;;;;;;;;;;;5112208;28;20347;-87
2023/07/02 05:23:59;;;;;;;;;;;;;;;;;;5095381;28;19970;-88
2023/07/02 05:26:26;;;;;;;;;;;;;;;;;;5112300;28;20018;-90
2023/07/02 05:28:52;;;;;;;;;;;;;;;;;;5095181;28;20015;-85
2023/07/02 05:31:18;;;;;;;;;;;;;;;;;;5112324;28;19981;-86
2023/07/02 05:33:44;;;;;;;;;;;;;;;;;;5113345;28;20014;-87
2023/07/02 05:36:10;;;;;;;;;;;;;;;;;;5112054;28;19960;-86
2023/07/02 05:38:36;;;;;;;;;;;;;;;;;;5112050;28;19967;-86
2023/07/02 05:41:02;;;;;;;;;;;;;;;;;;5112138;28;19919;-87
2023/07/02 05:43:28;;;;;;;;;;;;;;;;;;5111715;28;19926;-86
2023/07/02 05:45:53;;;;;;;;;;;;;;;;;;5094981;28;19920;-86
2023/07/02 05:48:19;;;;;;;;;;;;;;;;;;5111944;28;19985;-86
2023/07/02 05:50:45;;;;;;;;;;;;;;;;;;5111737;28;20007;-86
2023/07/02 05:53:11;;;;;;;;;;;;;;;;;;5111886;28;20351;-87
2023/07/02 05:55:37;;;;;;;;;;;;;;;;;;5111584;28;19930;-86
2023/07/02 05:58:03;;;;;;;;;;;;;;;;;;5111805;28;19930;-86
2023/07/02 06:00:29;;;;;;;;;;;;;;;;;;5111525;28;19924;-86
2023/07/02 06:02:55;;;;;;;;;;;;;;;;;;5112804;28;19969;-86
2023/07/02 06:05:21;;;;;;;;;;;;;;;;;;5112122;28;19919;-86
2023/07/02 06:07:47;;;;;;;;;;;;;;;;;;5111471;28;20378;-86
2023/07/02 06:10:12;;;;;;;;;;;;;;;;;;5094481;28;20286;-87
2023/07/02 06:12:38;;;;;;;;;;;;;;;;;;5111379;28;19946;-86
2023/07/02 06:15:04;;;;;;;;;;;;;;;;;;5102928;28;20371;-86
2023/07/02 06:17:33;;;;;;;;;;;;;;;;;;5091124;28;19920;-86
2023/07/02 06:19:59;;;;;;;;;;;;;;;;;;5091000;28;19920;-86
2023/07/02 06:22:25;;;;;;;;;;;;;;;;;;5090971;28;19985;-87
2023/07/02 06:24:51;;;;;;;;;;;;;;;;;;5102132;28;19995;-87
2023/07/02 06:27:17;;;;;;;;;;;;;;;;;;5111050;28;19920;-87
2023/07/02 06:29:43;;;;;;;;;;;;;;;;;;5111571;28;19924;-87
2023/07/02 06:32:09;;;;;;;;;;;;;;;;;;5094588;28;20359;-87
2023/07/02 06:34:36;;;;;;;;;;;;;;;;;;5111140;28;19919;-86
2023/07/02 06:37:02;;;;;;;;;;;;;;;;;;5111083;28;19919;-86
2023/07/02 06:39:27;;;;;;;;;;;;;;;;;;5112649;28;19968;-87
2023/07/02 06:41:53;;;;;;;;;;;;;;;;;;5112230;28;19927;-86
2023/07/02 06:44:19;;;;;;;;;;;;;;;;;;5094079;28;19920;-86
2023/07/02 06:46:45;;;;;;;;;;;;;;;;;;5112719;28;19920;-86
2023/07/02 06:49:11;;;;;;;;;;;;;;;;;;5111029;28;19924;-87
2023/07/02 06:51:37;;;;;;;;;;;;;;;;;;5093943;28;19920;-87
2023/07/02 06:54:03;;;;;;;;;;;;;;;;;;5114555;28;19930;-87
2023/07/02 06:56:29;;;;;;;;;;;;;;;;;;5114934;28;19942;-85
2023/07/02 06:58:55;;;;;;;;;;;;;;;;;;5115226;28;19919;-88
2023/07/02 07:01:21;;;;;;;;;;;;;;;;;;5116667;28;20018;-88
2023/07/02 07:03:46;;;;;;;;;;;;;;;;;;5115067;28;20027;-87
2023/07/02 07:06:12;;;;;;;;;;;;;;;;;;5115151;28;19920;-87
2023/07/02 07:08:39;;;;;;;;;;;;;;;;;;5114899;28;19923;-87
2023/07/02 07:11:04;;;;;;;;;;;;;;;;;;5097978;28;19920;-87
2023/07/02 07:13:30;;;;;;;;;;;;;;;;;;5115191;28;20068;-87
2023/07/02 07:15:56;;;;;;;;;;;;;;;;;;5116488;28;20447;-87
2023/07/02 07:18:22;;;;;;;;;;;;;;;;;;5116170;28;20303;-87
2023/07/02 07:20:48;;;;;;;;;;;;;;;;;;5114613;28;19923;-90
2023/07/02 07:23:14;;;;;;;;;;;;;;;;;;5114621;28;20014;-86
2023/07/02 07:25:40;;;;;;;;;;;;;;;;;;5114484;28;20007;-87
2023/07/02 07:28:06;;;;;;;;;;;;;;;;;;5115817;28;19919;-87
2023/07/02 07:30:32;;;;;;;;;;;;;;;;;;5114572;28;19920;-88
2023/07/02 07:32:58;;;;;;;;;;;;;;;;;;5114528;28;19927;-90
2023/07/02 07:35:24;;;;;;;;;;;;;;;;;;5114343;28;19947;-86
2023/07/02 07:37:49;;;;;;;;;;;;;;;;;;5115556;28;19932;-86
2023/07/02 07:40:15;;;;;;;;;;;;;;;;;;5114558;28;19920;-86
2023/07/02 07:42:44;;;;;;;;;;;;;;;;;;5097125;28;20298;-86
2023/07/02 07:45:11;;;;;;;;;;;;;;;;;;5097307;28;19920;-87
2023/07/02 07:47:36;;;;;;;;;;;;;;;;;;5113787;28;19935;-86
2023/07/02 07:50:02;;;;;;;;;;;;;;;;;;5097141;28;19920;-87
2023/07/02 07:52:28;;;;;;;;;;;;;;;;;;5115471;28;20405;-87
2023/07/02 07:54:54;;;;;;;;;;;;;;;;;;5113756;28;19954;-87
2023/07/02 07:57:20;;;;;;;;;;;;;;;;;;5115546;28;19923;-87
2023/07/02 07:59:46;;;;;;;;;;;;;;;;;;5113846;28;19925;-87
2023/07/02 08:02:12;;;;;;;;;;;;;;;;;;5113897;28;19928;-87
2023/07/02 08:04:38;;;;;;;;;;;;;;;;;;5112969;28;20375;-86
2023/07/02 08:07:04;;;;;;;;;;;;;;;;;;5113554;28;19924;-86
2023/07/02 08:09:30;;;;;;;;;;;;;;;;;;5096640;28;19927;-86
2023/07/02 08:11:56;;;;;;;;;;;;;;;;;;5113477;28;19919;-87
2023/07/02 08:14:22;;;;;;;;;;;;;;;;;;5113545;28;19927;-85
2023/07/02 08:16:48;;;;;;;;;;;;;;;;;;5114811;28;19920;-86
2023/07/02 08:19:14;;;;;;;;;;;;;;;;;;5113430;28;19924;-86
2023/07/02 08:21:40;;;;;;;;;;;;;;;;;;5114435;28;20014;-85
2023/07/02 08:24:06;;;;;;;;;;;;;;;;;;5114067;28;19919;-86
2023/07/02 08:26:32;;;;;;;;;;;;;;;;;;5113588;28;19967;-86
2023/07/02 08:28:58;;;;;;;;;;;;;;;;;;5113483;28;20367;-87
2023/07/02 08:31:23;;;;;;;;;;;;;;;;;;5113385;28;19950;-88
2023/07/02 08:33:49;;;;;;;;;;;;;;;;;;5113520;28;19919;-86
2023/07/02 08:36:15;;;;;;;;;;;;;;;;;;5096379;28;19923;-87
2023/07/02 08:38:41;;;;;;;;;;;;;;;;;;5113178;28;19973;-86
2023/07/02 08:41:07;;;;;;;;;;;;;;;;;;5113139;28;19920;-87
2023/07/02 08:43:33;;;;;;;;;;;;;;;;;;5113285;28;20377;-86
2023/07/02 08:45:59;;;;;;;;;;;;;;;;;;5113000;28;19920;-87
2023/07/02 08:48:26;;;;;;;;;;;;;;;;;;5112831;28;19923;-86
2023/07/02 08:50:52;;;;;;;;;;;;;;;;;;5112907;28;19920;-86
2023/07/02 08:53:18;;;;;;;;;;;;;;;;;;5113254;28;20205;-86
2023/07/02 08:55:44;;;;;;;;;;;;;;;;;;5112905;28;20255;-86
2023/07/02 08:58:10;;;;;;;;;;;;;;;;;;5114099;28;19984;-87
2023/07/02 09:00:36;;;;;;;;;;;;;;;;;;5113180;28;19998;-86
2023/07/02 09:03:02;;;;;;;;;;;;;;;;;;5095763;28;19924;-86
2023/07/02 09:05:30;;;;;;;;;;;;;;;;;;5112559;28;20329;-87
2023/07/02 09:07:56;;;;;;;;;;;;;;;;;;5112961;28;19980;-91
2023/07/02 09:10:22;;;;;;;;;;;;;;;;;;5112647;28;19919;-87
2023/07/02 09:12:48;;;;;;;;;;;;;;;;;;5112628;28;19920;-88
2023/07/02 09:15:14;;;;;;;;;;;;;;;;;;5112147;28;19931;-88
2023/07/02 09:17:40;;;;;;;;;;;;;;;;;;5095714;28;20279;-88
2023/07/02 09:20:07;;;;;;;;;;;;;;;;;;5112408;28;19955;-88
2023/07/02 09:22:33;;;;;;;;;;;;;;;;;;5112617;28;20003;-87
2023/07/02 09:24:59;;;;;;;;;;;;;;;;;;5095438;28;19924;-88
2023/07/02 09:27:25;;;;;;;;;;;;;;;;;;5112448;28;19988;-87
2023/07/02 09:29:54;;;;;;;;;;;;;;;;;;5112608;28;19920;-87
2023/07/02 09:32:20;;;;;;;;;;;;;;;;;;5112080;28;19975;-87
2023/07/02 09:34:46;;;;;;;;;;;;;;;;;;5092327;28;20002;-88
2023/07/02 09:37:12;;;;;;;;;;;;;;;;;;5102546;28;19967;-88
2023/07/02 09:39:39;;;;;;;;;;;;;;;;;;5095366;28;20448;-87
2023/07/02 09:42:05;;;;;;;;;;;;;;;;;;5095168;28;19930;-86
2023/07/02 09:44:31;;;;;;;;;;;;;;;;;;5111711;28;19967;-87
2023/07/02 09:46:57;;;;;;;;;;;;;;;;;;5111781;28;20405;-87
2023/07/02 09:49:23;;;;;;;;;;;;;;;;;;5111705;28;19920;-90
2023/07/02 09:51:49;;;;;;;;;;;;;;;;;;5094549;28;20332;-89
2023/07/02 09:54:15;;;;;;;;;;;;;;;;;;5112917;28;19928;-86
2023/07/02 09:56:41;;;;;;;;;;;;;;;;;;5094499;28;19920;-88
2023/07/02 09:59:06;;;;;;;;;;;;;;;;;;5113793;28;20363;-87
2023/07/02 10:01:32;;;;;;;;;;;;;;;;;;5111862;28;19924;-87
2023/07/02 10:03:58;;;;;;;;;;;;;;;;;;5111589;28;19942;-89
2023/07/02 10:06:24;;;;;;;;;;;;;;;;;;5111663;28;20356;-86
2023/07/02 10:08:50;;;;;;;;;;;;;;;;;;5094611;28;19939;-87
2023/07/02 10:11:16;;;;;;;;;;;;;;;;;;5111699;28;19920;-87
2023/07/02 10:13:42;;;;;;;;;;;;;;;;;;5111430;28;19926;-87
2023/07/02 10:16:08;;;;;;;;;;;;;;;;;;5111237;28;19919;-88
2023/07/02 10:18:34;;;;;;;;;;;;;;;;;;5094259;28;19926;-90
2023/07/02 10:21:00;;;;;;;;;;;;;;;;;;5111720;28;19992;-89
2023/07/02 10:23:26;;;;;;;;;;;;;;;;;;5112575;28;20340;-88
2023/07/02 10:25:52;;;;;;;;;;;;;;;;;;5094121;28;19920;-89
2023/07/02 10:28:19;;;;;;;;;;;;;;;;;;5110627;28;19973;-88
2023/07/02 10:30:45;;;;;;;;;;;;;;;;;;5090929;28;19920;-87
2023/07/02 10:33:11;;;;;;;;;;;;;;;;;;5033159;28;19972;-87
2023/07/02 10:35:37;;;;;;;;;;;;;;;;;;5050683;28;20399;-88
2023/07/02 10:38:03;;;;;;;;;;;;;;;;;;5050449;28;20280;-87
2023/07/02 10:40:29;;;;;;;;;;;;;;;;;;5034109;28;19921;-87
2023/07/02 10:42:55;;;;;;;;;;;;;;;;;;5050483;28;19925;-89
2023/07/02 10:45:21;;;;;;;;;;;;;;;;;;5050395;28;19920;-88
2023/07/02 10:47:46;;;;;;;;;;;;;;;;;;5033639;28;19921;-88
2023/07/02 10:50:12;;;;;;;;;;;;;;;;;;5033900;28;19924;-89
2023/07/02 10:52:38;;;;;;;;;;;;;;;;;;5050572;28;20269;-88
2023/07/02 10:55:04;;;;;;;;;;;;;;;;;;5050330;28;19925;-88
2023/07/02 10:57:30;;;;;;;;;;;;;;;;;;5050343;28;19920;-88
2023/07/02 10:59:56;;;;;;;;;;;;;;;;;;5050344;28;20289;-89
2023/07/02 11:02:22;;;;;;;;;;;;;;;;;;5050137;28;19964;-89
2023/07/02 11:04:48;;;;;;;;;;;;;;;;;;5034108;28;20003;-89
2023/07/02 11:07:14;;;;;;;;;;;;;;;;;;5050254;28;19929;-89
2023/07/02 11:09:40;;;;;;;;;;;;;;;;;;5050671;28;19921;-88
2023/07/02 11:12:05;;;;;;;;;;;;;;;;;;5050963;28;19928;-89
2023/07/02 11:14:31;;;;;;;;;;;;;;;;;;5033605;28;19927;-90
2023/07/02 11:16:57;;;;;;;;;;;;;;;;;;5033467;28;19921;-91
2023/07/02 11:19:23;;;;;;;;;;;;;;;;;;5050446;28;20035;-91
2023/07/02 11:21:49;;;;;;;;;;;;;;;;;;5050499;28;20299;-90
2023/07/02 11:24:15;;;;;;;;;;;;;;;;;;5050424;28;20012;-89
2023/07/02 11:26:43;;;;;;;;;;;;;;;;;;5050602;28;20016;-90
2023/07/02 11:29:09;;;;;;;;;;;;;;;;;;5030670;28;19929;-91
2023/07/02 11:31:35;;;;;;;;;;;;;;;;;;5033619;28;19921;-91
2023/07/02 11:34:01;;;;;;;;;;;;;;;;;;5046619;28;20606;-91
2023/07/02 11:36:27;;;;;;;;;;;;;;;;;;5030422;28;19929;-91
2023/07/02 11:38:53;;;;;;;;;;;;;;;;;;5032138;28;19932;-90
2023/07/02 11:41:19;;;;;;;;;;;;;;;;;;5017342;28;20345;-89
2023/07/02 11:43:45;;;;;;;;;;;;;;;;;;5018610;28;19921;-89
2023/07/02 11:46:11;;;;;;;;;;;;;;;;;;5053757;28;19929;-91
2023/07/02 11:48:37;;;;;;;;;;;;;;;;;;5056420;28;20004;-89
2023/07/02 11:51:03;;;;;;;;;;;;;;;;;;5056436;28;20260;-89
2023/07/02 11:53:29;;;;;;;;;;;;;;;;;;5057375;28;19967;-89
2023/07/02 11:55:54;;;;;;;;;;;;;;;;;;5057061;28;19948;-90
2023/07/02 11:58:20;;;;;;;;;;;;;;;;;;5055171;28;19921;-90
2023/07/02 12:00:46;;;;;;;;;;;;;;;;;;5056478;28;19931;-89
2023/07/02 12:03:12;;;;;;;;;;;;;;;;;;5040206;28;19971;-91
2023/07/02 12:05:38;;;;;;;;;;;;;;;;;;5040212;28;19928;-90
2023/07/02 12:08:04;;;;;;;;;;;;;;;;;;5056331;28;19928;-89
2023/07/02 12:10:30;;;;;;;;;;;;;;;;;;5056288;28;19988;-90
2023/07/02 12:12:56;;;;;;;;;;;;;;;;;;5053664;28;19928;-90
2023/07/02 12:15:22;;;;;;;;;;;;;;;;;;5053184;28;19920;-90
2023/07/02 12:17:48;;;;;;;;;;;;;;;;;;5036620;28;19921;-90
2023/07/02 12:20:13;;;;;;;;;;;;;;;;;;5036459;28;19926;-92
2023/07/02 12:22:39;;;;;;;;;;;;;;;;;;5053020;28;19971;-88
2023/07/02 12:25:05;;;;;;;;;;;;;;;;;;5036252;28;19925;-88
2023/07/02 12:27:31;;;;;;;;;;;;;;;;;;5052876;28;19990;-88
2023/07/02 12:29:57;;;;;;;;;;;;;;;;;;5052718;28;19921;-89
2023/07/02 12:32:23;;;;;;;;;;;;;;;;;;5052844;28;19925;-88
2023/07/02 12:34:49;;;;;;;;;;;;;;;;;;5053897;28;19928;-88
2023/07/02 12:37:17;;;;;;;;;;;;;;;;;;5053211;28;19928;-88
2023/07/02 12:39:43;;;;;;;;;;;;;;;;;;5036434;28;19928;-87
2023/07/02 12:42:10;;;;;;;;;;;;;;;;;;5052947;28;20004;-86
2023/07/02 12:44:35;;;;;;;;;;;;;;;;;;5052514;28;19921;-87
2023/07/02 12:47:01;;;;;;;;;;;;;;;;;;5052556;28;19927;-88
2023/07/02 12:49:27;;;;;;;;;;;;;;;;;;5052657;28;19920;-88
2023/07/02 12:51:53;;;;;;;;;;;;;;;;;;5052926;28;20014;-89
2023/07/02 12:54:19;;;;;;;;;;;;;;;;;;5052452;28;19931;-88
2023/07/02 12:56:45;;;;;;;;;;;;;;;;;;5053007;28;19921;-88
2023/07/02 12:59:11;;;;;;;;;;;;;;;;;;5053893;28;19989;-88
2023/07/02 13:01:37;;;;;;;;;;;;;;;;;;5036745;28;19925;-88
2023/07/02 13:04:03;;;;;;;;;;;;;;;;;;5053030;28;19928;-88
2023/07/02 13:06:31;;;;;;;;;;;;;;;;;;5052565;28;19947;-87
2023/07/02 13:08:57;;;;;;;;;;;;;;;;;;5052389;28;19920;-89
2023/07/02 13:11:25;;;;;;;;;;;;;;;;;;5035193;28;21295;-86
2023/07/02 13:13:51;;;;;;;;;;;;;;;;;;5051884;28;19921;-86
2023/07/02 13:16:17;;;;;;;;;;;;;;;;;;5051828;28;19927;-87
2023/07/02 13:18:43;;;;;;;;;;;;;;;;;;5051907;28;19983;-86
2023/07/02 13:21:09;;;;;;;;;;;;;;;;;;5052032;28;20000;-86
2023/07/02 13:23:35;;;;;;;;;;;;;;;;;;5051682;28;19936;-87
2023/07/02 13:26:01;;;;;;;;;;;;;;;;;;5052138;28;20233;-87
2023/07/02 13:28:28;;;;;;;;;;;;;;;;;;5051838;28;19921;-86
2023/07/02 13:30:53;;;;;;;;;;;;;;;;;;5051843;28;20419;-86
2023/07/02 13:33:19;;;;;;;;;;;;;;;;;;5051534;28;19964;-86
2023/07/02 13:35:45;;;;;;;;;;;;;;;;;;5053104;28;20026;-86
2023/07/02 13:38:11;;;;;;;;;;;;;;;;;;5051355;28;20388;-86
2023/07/02 13:40:37;;;;;;;;;;;;;;;;;;5051666;28;19927;-87
2023/07/02 13:43:03;;;;;;;;;;;;;;;;;;5034691;28;19925;-87
2023/07/02 13:45:29;;;;;;;;;;;;;;;;;;5051557;28;19921;-87
2023/07/02 13:47:55;;;;;;;;;;;;;;;;;;5051622;28;20399;-89
2023/07/02 13:50:21;;;;;;;;;;;;;;;;;;5051522;28;20016;-92
2023/07/02 13:52:48;;;;;;;;;;;;;;;;;;5035112;28;19960;-91
2023/07/02 13:55:13;;;;;;;;;;;;;;;;;;5051467;28;19936;-91
2023/07/02 13:57:39;;;;;;;;;;;;;;;;;;5035028;28;20288;-92
2023/07/02 14:00:05;;;;;;;;;;;;;;;;;;5030607;28;20292;-91
2023/07/02 14:02:31;;;;;;;;;;;;;;;;;;5024250;28;19924;-91
2023/07/02 14:04:57;;;;;;;;;;;;;;;;;;5034628;28;19967;-91
2023/07/02 14:07:23;;;;;;;;;;;;;;;;;;5051151;28;19929;-92
2023/07/02 14:09:49;;;;;;;;;;;;;;;;;;5051404;28;20269;-92
2023/07/02 14:12:15;;;;;;;;;;;;;;;;;;5035228;28;20000;-92
2023/07/02 14:14:41;;;;;;;;;;;;;;;;;;5051371;28;19921;-92
2023/07/02 14:17:07;;;;;;;;;;;;;;;;;;5034603;28;19927;-91
2023/07/02 14:19:33;;;;;;;;;;;;;;;;;;5051038;28;20037;-92
2023/07/02 14:21:59;;;;;;;;;;;;;;;;;;5051208;28;19924;-89
2023/07/02 14:24:26;;;;;;;;;;;;;;;;;;5050608;28;19924;-89
2023/07/02 14:26:51;;;;;;;;;;;;;;;;;;5034410;28;19921;-88
2023/07/02 14:29:17;;;;;;;;;;;;;;;;;;5034285;28;19927;-86
2023/07/02 14:31:43;;;;;;;;;;;;;;;;;;5050752;28;19925;-89
2023/07/02 14:34:09;;;;;;;;;;;;;;;;;;5050846;28;19990;-89
2023/07/02 14:36:35;;;;;;;;;;;;;;;;;;5050896;28;19921;-89
2023/07/02 14:39:01;;;;;;;;;;;;;;;;;;5047849;28;19994;-89
2023/07/02 14:41:27;;;;;;;;;;;;;;;;;;5050507;28;19997;-89
2023/07/02 14:43:53;;;;;;;;;;;;;;;;;;5050596;28;19921;-88
2023/07/02 14:46:19;;;;;;;;;;;;;;;;;;5034095;28;20355;-90
2023/07/02 14:48:45;;;;;;;;;;;;;;;;;;5034122;28;19927;-89
2023/07/02 14:51:11;;;;;;;;;;;;;;;;;;5033749;28;20122;-89
2023/07/02 14:53:37;;;;;;;;;;;;;;;;;;5050316;28;20344;-90
2023/07/02 14:56:03;;;;;;;;;;;;;;;;;;5050342;28;19929;-90
2023/07/02 14:58:29;;;;;;;;;;;;;;;;;;5050565;28;19970;-90
2023/07/02 15:00:55;;;;;;;;;;;;;;;;;;5033928;28;20287;-89
2023/07/02 15:03:22;;;;;;;;;;;;;;;;;;5050486;28;19932;-90
2023/07/02 15:05:48;;;;;;;;;;;;;;;;;;5050314;28;19925;-89
2023/07/02 15:08:16;;;;;;;;;;;;;;;;;;5033728;28;19929;-87
2023/07/02 15:10:42;;;;;;;;;;;;;;;;;;5033469;28;20293;-88
2023/07/02 15:13:08;;;;;;;;;;;;;;;;;;5034403;28;20295;-88
2023/07/02 15:15:35;;;;;;;;;;;;;;;;;;5053936;28;20450;-88
2023/07/02 15:18:01;;;;;;;;;;;;;;;;;;5037809;28;20268;-87
2023/07/02 15:20:27;;;;;;;;;;;;;;;;;;5054332;28;19927;-87
2023/07/02 15:22:53;;;;;;;;;;;;;;;;;;5055430;28;19924;-86
2023/07/02 15:25:19;;;;;;;;;;;;;;;;;;5053978;28;19978;-87
2023/07/02 15:27:45;;;;;;;;;;;;;;;;;;5037327;28;19921;-87
2023/07/02 15:30:11;;;;;;;;;;;;;;;;;;5053773;28;19986;-86
2023/07/02 15:32:37;;;;;;;;;;;;;;;;;;5053758;28;20233;-87
2023/07/02 15:35:03;;;;;;;;;;;;;;;;;;5053767;28;19928;-87
2023/07/02 15:37:29;;;;;;;;;;;;;;;;;;5054791;28;19921;-86
2023/07/02 15:39:55;;;;;;;;;;;;;;;;;;5053695;28;19974;-89
2023/07/02 15:42:21;;;;;;;;;;;;;;;;;;5053481;28;19932;-88
2023/07/02 15:44:46;;;;;;;;;;;;;;;;;;5053761;28;19928;-88
2023/07/02 15:47:12;;;;;;;;;;;;;;;;;;5053844;28;19921;-88
2023/07/02 15:49:38;;;;;;;;;;;;;;;;;;5037218;28;19920;-88
2023/07/02 15:52:04;;;;;;;;;;;;;;;;;;5037060;28;19924;-88
2023/07/02 15:54:30;;;;;;;;;;;;;;;;;;5053278;28;19925;-88
2023/07/02 15:56:56;;;;;;;;;;;;;;;;;;5053513;28;20276;-87
2023/07/02 15:59:23;;;;;;;;;;;;;;;;;;5053635;28;20345;-86
2023/07/02 16:01:49;;;;;;;;;;;;;;;;;;5053009;28;19971;-87
2023/07/02 16:04:15;;;;;;;;;;;;;;;;;;5036249;28;19964;-87
2023/07/02 16:06:41;;;;;;;;;;;;;;;;;;5036661;28;19924;-86
2023/07/02 16:09:08;;;;;;;;;;;;;;;;;;5036588;28;19921;-87
2023/07/02 16:11:35;;;;;;;;;;;;;;;;;;5052736;28;20015;-88
2023/07/02 16:14:04;;;;;;;;;;;;;;;;;;5036117;28;19928;-88
2023/07/02 16:16:30;;;;;;;;;;;;;;;;;;5036170;28;19928;-88
2023/07/02 16:18:55;;;;;;;;;;;;;;;;;;5053050;28;19920;-88
2023/07/02 16:21:21;;;;;;;;;;;;;;;;;;5052695;28;19921;-87
2023/07/02 16:23:47;;;;;;;;;;;;;;;;;;5052555;28;19928;-88
2023/07/02 16:26:13;;;;;;;;;;;;;;;;;;5051388;28;20012;-89
2023/07/02 16:28:39;;;;;;;;;;;;;;;;;;5052501;28;20490;-86
2023/07/02 16:31:05;;;;;;;;;;;;;;;;;;5035887;28;19921;-86
2023/07/02 16:33:33;;;;;;;;;;;;;;;;;;5035699;28;19921;-86
2023/07/02 16:35:58;;;;;;;;;;;;;;;;;;5035622;28;19920;-87